sensor_id;sensor_type;location;lat;lon;timestamp;temperature;humidity
9083;DHT22;4577;48.704;9.000;2022-08-19T00:01:36;20.40;67.70
9083;DHT22;4577;48.704;9.000;2022-08-19T00:04:05;20.40;67.50
9083;DHT22;4577;48.704;9.000;2022-08-19T00:08:58;20.30;67.90
9083;DHT22;4577;48.704;9.000;2022-08-19T00:21:12;20.30;68.50
9083;DHT22;4577;48.704;9.000;2022-08-19T00:28:31;20.20;68.30
9083;DHT22;4577;48.704;9.000;2022-08-19T00:33:24;20.10;68.70
9083;DHT22;4577;48.704;9.000;2022-08-19T00:35:50;20.10;68.60
9083;DHT22;4577;48.704;9.000;2022-08-19T00:40:43;20.20;68.70
9083;DHT22;4577;48.704;9.000;2022-08-19T00:45:41;20.20;68.60
9083;DHT22;4577;48.704;9.000;2022-08-19T00:53:02;20.10;68.60
9083;DHT22;4577;48.704;9.000;2022-08-19T00:55:30;20.10;68.90
9083;DHT22;4577;48.704;9.000;2022-08-19T00:58:04;20.10;68.90
9083;DHT22;4577;48.704;9.000;2022-08-19T01:02:59;20.20;68.50
9083;DHT22;4577;48.704;9.000;2022-08-19T01:05:27;20.10;68.70
9083;DHT22;4577;48.704;9.000;2022-08-19T01:07:56;20.20;68.90
9083;DHT22;4577;48.704;9.000;2022-08-19T01:10:25;20.10;68.80
9083;DHT22;4577;48.704;9.000;2022-08-19T01:12:53;20.20;68.90
9083;DHT22;4577;48.704;9.000;2022-08-19T01:15:23;20.10;69.00
9083;DHT22;4577;48.704;9.000;2022-08-19T01:17:51;20.00;69.40
9083;DHT22;4577;48.704;9.000;2022-08-19T01:20:19;20.00;69.50
9083;DHT22;4577;48.704;9.000;2022-08-19T01:22:49;19.90;69.50
9083;DHT22;4577;48.704;9.000;2022-08-19T01:25:18;20.00;69.60
9083;DHT22;4577;48.704;9.000;2022-08-19T01:27:49;20.00;69.30
9083;DHT22;4577;48.704;9.000;2022-08-19T01:30:21;20.00;69.50
9083;DHT22;4577;48.704;9.000;2022-08-19T01:32:49;20.00;69.50
9083;DHT22;4577;48.704;9.000;2022-08-19T01:37:55;19.80;69.60
9083;DHT22;4577;48.704;9.000;2022-08-19T01:40:24;20.00;69.60
9083;DHT22;4577;48.704;9.000;2022-08-19T01:42:50;19.90;69.80
9083;DHT22;4577;48.704;9.000;2022-08-19T01:45:18;19.90;70.00
9083;DHT22;4577;48.704;9.000;2022-08-19T01:50:11;19.80;70.70
9083;DHT22;4577;48.704;9.000;2022-08-19T01:52:41;19.90;71.40
9083;DHT22;4577;48.704;9.000;2022-08-19T01:55:12;19.80;71.80
9083;DHT22;4577;48.704;9.000;2022-08-19T01:57:40;19.80;71.90
9083;DHT22;4577;48.704;9.000;2022-08-19T02:00:10;19.70;72.40
9083;DHT22;4577;48.704;9.000;2022-08-19T02:02:36;19.70;72.40
9083;DHT22;4577;48.704;9.000;2022-08-19T02:05:03;19.60;72.50
9083;DHT22;4577;48.704;9.000;2022-08-19T02:07:29;19.70;72.70
9083;DHT22;4577;48.704;9.000;2022-08-19T02:09:54;19.70;72.70
9083;DHT22;4577;48.704;9.000;2022-08-19T02:17:13;19.70;73.40
9083;DHT22;4577;48.704;9.000;2022-08-19T02:19:39;19.80;73.80
9083;DHT22;4577;48.704;9.000;2022-08-19T02:24:32;19.50;73.70
9083;DHT22;4577;48.704;9.000;2022-08-19T02:26:58;19.50;74.00
9083;DHT22;4577;48.704;9.000;2022-08-19T02:39:09;19.60;73.80
9083;DHT22;4577;48.704;9.000;2022-08-19T02:44:03;19.60;74.20
9083;DHT22;4577;48.704;9.000;2022-08-19T02:46:31;19.50;74.20
9083;DHT22;4577;48.704;9.000;2022-08-19T02:49:00;19.50;74.40
9083;DHT22;4577;48.704;9.000;2022-08-19T02:51:36;19.40;74.50
9083;DHT22;4577;48.704;9.000;2022-08-19T02:54:04;19.50;74.50
9083;DHT22;4577;48.704;9.000;2022-08-19T02:58:57;19.30;74.40
9083;DHT22;4577;48.704;9.000;2022-08-19T03:01:29;19.40;74.70
9083;DHT22;4577;48.704;9.000;2022-08-19T03:03:57;19.50;74.90
9083;DHT22;4577;48.704;9.000;2022-08-19T03:08:49;19.40;75.00
9083;DHT22;4577;48.704;9.000;2022-08-19T03:11:28;19.40;75.50
9083;DHT22;4577;48.704;9.000;2022-08-19T03:13:54;19.40;75.50
9083;DHT22;4577;48.704;9.000;2022-08-19T03:16:22;19.40;75.60
9083;DHT22;4577;48.704;9.000;2022-08-19T03:18:49;19.30;75.80
9083;DHT22;4577;48.704;9.000;2022-08-19T03:21:17;19.30;75.90
9083;DHT22;4577;48.704;9.000;2022-08-19T03:31:08;19.30;76.30
9083;DHT22;4577;48.704;9.000;2022-08-19T03:38:30;19.30;76.80
9083;DHT22;4577;48.704;9.000;2022-08-19T03:43:22;19.20;77.00
9083;DHT22;4577;48.704;9.000;2022-08-19T03:45:47;19.50;77.80
9083;DHT22;4577;48.704;9.000;2022-08-19T03:55:40;19.20;77.70
9083;DHT22;4577;48.704;9.000;2022-08-19T04:02:59;19.20;78.70
9083;DHT22;4577;48.704;9.000;2022-08-19T04:05:27;19.00;78.70
9083;DHT22;4577;48.704;9.000;2022-08-19T04:15:15;19.00;79.80
9083;DHT22;4577;48.704;9.000;2022-08-19T04:20:08;19.00;79.80
9083;DHT22;4577;48.704;9.000;2022-08-19T04:27:26;19.00;80.00
9083;DHT22;4577;48.704;9.000;2022-08-19T04:29:52;18.90;80.50
9083;DHT22;4577;48.704;9.000;2022-08-19T04:45:11;19.30;82.20
9083;DHT22;4577;48.704;9.000;2022-08-19T04:47:42;18.90;82.20
9083;DHT22;4577;48.704;9.000;2022-08-19T04:50:09;18.90;82.40
9083;DHT22;4577;48.704;9.000;2022-08-19T04:55:03;18.90;82.90
9083;DHT22;4577;48.704;9.000;2022-08-19T04:57:31;19.10;83.20
9083;DHT22;4577;48.704;9.000;2022-08-19T05:02:23;19.10;83.20
9083;DHT22;4577;48.704;9.000;2022-08-19T05:07:16;18.90;83.20
9083;DHT22;4577;48.704;9.000;2022-08-19T05:14:34;18.90;83.40
9083;DHT22;4577;48.704;9.000;2022-08-19T05:24:58;18.90;83.80
9083;DHT22;4577;48.704;9.000;2022-08-19T05:32:16;19.00;83.60
9083;DHT22;4577;48.704;9.000;2022-08-19T05:39:36;19.00;84.20
9083;DHT22;4577;48.704;9.000;2022-08-19T05:42:08;18.90;84.10
9083;DHT22;4577;48.704;9.000;2022-08-19T05:44:36;18.90;84.30
9083;DHT22;4577;48.704;9.000;2022-08-19T05:47:04;19.00;84.20
9083;DHT22;4577;48.704;9.000;2022-08-19T05:49:32;19.00;84.20
9083;DHT22;4577;48.704;9.000;2022-08-19T05:54:25;18.90;84.60
9083;DHT22;4577;48.704;9.000;2022-08-19T05:56:52;19.50;85.20
9083;DHT22;4577;48.704;9.000;2022-08-19T05:59:19;18.90;85.00
9083;DHT22;4577;48.704;9.000;2022-08-19T06:01:48;19.00;84.60
9083;DHT22;4577;48.704;9.000;2022-08-19T06:04:19;19.00;84.40
9083;DHT22;4577;48.704;9.000;2022-08-19T06:06:49;19.00;84.40
9083;DHT22;4577;48.704;9.000;2022-08-19T06:11:56;18.90;84.10
9083;DHT22;4577;48.704;9.000;2022-08-19T06:14:27;18.90;84.20
9083;DHT22;4577;48.704;9.000;2022-08-19T06:19:21;18.90;84.70
9083;DHT22;4577;48.704;9.000;2022-08-19T06:21:49;19.00;84.40
9083;DHT22;4577;48.704;9.000;2022-08-19T06:24:18;19.00;83.90
9083;DHT22;4577;48.704;9.000;2022-08-19T06:26:47;19.00;83.90
9083;DHT22;4577;48.704;9.000;2022-08-19T06:29:15;19.00;83.60
9083;DHT22;4577;48.704;9.000;2022-08-19T06:31:44;19.00;83.50
9083;DHT22;4577;48.704;9.000;2022-08-19T06:34:10;19.20;83.50
9083;DHT22;4577;48.704;9.000;2022-08-19T06:36:40;19.00;82.90
9083;DHT22;4577;48.704;9.000;2022-08-19T06:39:28;19.00;83.30
9083;DHT22;4577;48.704;9.000;2022-08-19T06:41:56;19.00;83.00
9083;DHT22;4577;48.704;9.000;2022-08-19T06:44:24;19.10;82.80
9083;DHT22;4577;48.704;9.000;2022-08-19T06:49:17;19.10;82.70
9083;DHT22;4577;48.704;9.000;2022-08-19T06:51:48;19.20;82.00
9083;DHT22;4577;48.704;9.000;2022-08-19T06:54:16;19.10;81.90
9083;DHT22;4577;48.704;9.000;2022-08-19T06:59:15;19.20;81.70
9083;DHT22;4577;48.704;9.000;2022-08-19T07:01:48;19.30;81.30
9083;DHT22;4577;48.704;9.000;2022-08-19T07:04:17;19.30;81.30
9083;DHT22;4577;48.704;9.000;2022-08-19T07:09:12;19.30;80.30
9083;DHT22;4577;48.704;9.000;2022-08-19T07:21:27;19.30;80.30
9083;DHT22;4577;48.704;9.000;2022-08-19T07:23:56;19.30;80.50
9083;DHT22;4577;48.704;9.000;2022-08-19T07:26:27;19.40;80.60
9083;DHT22;4577;48.704;9.000;2022-08-19T07:31:22;19.40;80.60
9083;DHT22;4577;48.704;9.000;2022-08-19T07:33:49;19.50;80.60
9083;DHT22;4577;48.704;9.000;2022-08-19T07:36:20;19.60;79.70
9083;DHT22;4577;48.704;9.000;2022-08-19T07:38:48;19.50;79.70
9083;DHT22;4577;48.704;9.000;2022-08-19T07:41:19;19.50;79.90
9083;DHT22;4577;48.704;9.000;2022-08-19T07:46:12;19.50;79.70
9083;DHT22;4577;48.704;9.000;2022-08-19T07:48:40;19.50;80.10
9083;DHT22;4577;48.704;9.000;2022-08-19T07:51:07;19.50;79.90
9083;DHT22;4577;48.704;9.000;2022-08-19T07:58:32;19.50;79.70
9083;DHT22;4577;48.704;9.000;2022-08-19T08:11:45;19.70;79.20
9083;DHT22;4577;48.704;9.000;2022-08-19T08:36:13;19.50;81.80
9083;DHT22;4577;48.704;9.000;2022-08-19T08:38:40;19.50;81.70
9083;DHT22;4577;48.704;9.000;2022-08-19T08:43:46;19.50;81.50
9083;DHT22;4577;48.704;9.000;2022-08-19T08:46:39;19.50;82.10
9083;DHT22;4577;48.704;9.000;2022-08-19T08:54:20;19.60;81.80
9083;DHT22;4577;48.704;9.000;2022-08-19T08:56:49;19.60;81.40
9083;DHT22;4577;48.704;9.000;2022-08-19T08:59:30;19.40;80.80
9083;DHT22;4577;48.704;9.000;2022-08-19T09:10:10;20.30;79.90
9083;DHT22;4577;48.704;9.000;2022-08-19T09:15:12;19.80;78.90
9083;DHT22;4577;48.704;9.000;2022-08-19T09:20:25;19.80;78.60
9083;DHT22;4577;48.704;9.000;2022-08-19T09:25:19;19.90;78.20
9083;DHT22;4577;48.704;9.000;2022-08-19T09:27:54;20.00;78.20
9083;DHT22;4577;48.704;9.000;2022-08-19T09:30:27;20.00;78.20
9083;DHT22;4577;48.704;9.000;2022-08-19T09:32:55;20.00;78.10
9083;DHT22;4577;48.704;9.000;2022-08-19T09:35:22;20.00;77.90
9083;DHT22;4577;48.704;9.000;2022-08-19T09:40:27;20.10;77.50
9083;DHT22;4577;48.704;9.000;2022-08-19T09:50:22;20.20;76.40
9083;DHT22;4577;48.704;9.000;2022-08-19T10:00:11;20.30;76.20
9083;DHT22;4577;48.704;9.000;2022-08-19T10:27:21;20.50;75.40
9083;DHT22;4577;48.704;9.000;2022-08-19T10:34:40;20.40;72.90
9083;DHT22;4577;48.704;9.000;2022-08-19T10:37:08;20.40;72.90
9083;DHT22;4577;48.704;9.000;2022-08-19T10:39:35;20.50;72.50
9083;DHT22;4577;48.704;9.000;2022-08-19T10:42:06;20.50;72.30
9083;DHT22;4577;48.704;9.000;2022-08-19T10:46:59;20.60;71.10
9083;DHT22;4577;48.704;9.000;2022-08-19T11:09:42;21.10;68.20
9083;DHT22;4577;48.704;9.000;2022-08-19T11:12:11;21.20;68.40
9083;DHT22;4577;48.704;9.000;2022-08-19T11:19:33;21.20;68.00
9083;DHT22;4577;48.704;9.000;2022-08-19T11:22:01;21.20;66.60
9083;DHT22;4577;48.704;9.000;2022-08-19T11:26:58;21.30;66.50
9083;DHT22;4577;48.704;9.000;2022-08-19T11:34:25;21.30;66.50
9083;DHT22;4577;48.704;9.000;2022-08-19T11:39:21;21.30;66.30
9083;DHT22;4577;48.704;9.000;2022-08-19T11:41:47;21.30;65.90
9083;DHT22;4577;48.704;9.000;2022-08-19T11:46:41;21.40;65.60
9083;DHT22;4577;48.704;9.000;2022-08-19T11:51:37;21.30;64.70
9083;DHT22;4577;48.704;9.000;2022-08-19T11:54:05;21.40;65.00
9083;DHT22;4577;48.704;9.000;2022-08-19T12:01:25;21.40;64.20
9083;DHT22;4577;48.704;9.000;2022-08-19T12:03:53;21.50;63.90
9083;DHT22;4577;48.704;9.000;2022-08-19T12:06:25;21.30;63.80
9083;DHT22;4577;48.704;9.000;2022-08-19T12:08:58;21.50;63.50
9083;DHT22;4577;48.704;9.000;2022-08-19T12:11:25;21.40;63.40
9083;DHT22;4577;48.704;9.000;2022-08-19T12:13:51;21.60;62.10
9083;DHT22;4577;48.704;9.000;2022-08-19T12:16:24;21.70;61.90
9083;DHT22;4577;48.704;9.000;2022-08-19T12:18:50;21.80;61.40
9083;DHT22;4577;48.704;9.000;2022-08-19T12:21:19;21.90;61.40
9083;DHT22;4577;48.704;9.000;2022-08-19T12:36:04;22.30;58.80
9083;DHT22;4577;48.704;9.000;2022-08-19T12:43:24;22.40;57.70
9083;DHT22;4577;48.704;9.000;2022-08-19T12:50:44;22.30;57.20
9083;DHT22;4577;48.704;9.000;2022-08-19T13:00:30;22.60;55.20
9083;DHT22;4577;48.704;9.000;2022-08-19T13:02:58;22.50;55.10
9083;DHT22;4577;48.704;9.000;2022-08-19T13:05:26;22.50;55.10
9083;DHT22;4577;48.704;9.000;2022-08-19T13:07:54;22.60;54.70
9083;DHT22;4577;48.704;9.000;2022-08-19T13:10:25;22.60;54.70
9083;DHT22;4577;48.704;9.000;2022-08-19T13:12:54;22.70;53.80
9083;DHT22;4577;48.704;9.000;2022-08-19T13:15:22;22.80;53.60
9083;DHT22;4577;48.704;9.000;2022-08-19T13:17:50;22.90;52.80
9083;DHT22;4577;48.704;9.000;2022-08-19T13:20:18;23.00;52.50
9083;DHT22;4577;48.704;9.000;2022-08-19T13:27:39;23.00;51.90
9083;DHT22;4577;48.704;9.000;2022-08-19T13:30:07;23.00;52.00
9083;DHT22;4577;48.704;9.000;2022-08-19T13:32:52;23.00;51.80
9083;DHT22;4577;48.704;9.000;2022-08-19T13:35:38;23.00;51.60
9083;DHT22;4577;48.704;9.000;2022-08-19T13:40:32;22.90;51.70
9083;DHT22;4577;48.704;9.000;2022-08-19T13:45:30;22.90;54.30
9083;DHT22;4577;48.704;9.000;2022-08-19T13:50:29;22.90;55.20
9083;DHT22;4577;48.704;9.000;2022-08-19T13:57:54;23.20;55.20
9083;DHT22;4577;48.704;9.000;2022-08-19T14:00:22;22.90;55.00
9083;DHT22;4577;48.704;9.000;2022-08-19T14:02:53;22.90;55.50
9083;DHT22;4577;48.704;9.000;2022-08-19T14:05:26;22.90;55.50
9083;DHT22;4577;48.704;9.000;2022-08-19T14:15:13;23.20;54.70
9083;DHT22;4577;48.704;9.000;2022-08-19T14:17:43;23.20;54.00
9083;DHT22;4577;48.704;9.000;2022-08-19T14:20:11;23.10;53.70
9083;DHT22;4577;48.704;9.000;2022-08-19T14:22:40;23.00;53.60
9083;DHT22;4577;48.704;9.000;2022-08-19T14:25:11;22.90;53.10
9083;DHT22;4577;48.704;9.000;2022-08-19T14:27:38;23.00;52.70
9083;DHT22;4577;48.704;9.000;2022-08-19T14:30:10;22.90;52.90
9083;DHT22;4577;48.704;9.000;2022-08-19T14:35:03;22.90;52.80
9083;DHT22;4577;48.704;9.000;2022-08-19T14:49:40;23.00;53.30
9083;DHT22;4577;48.704;9.000;2022-08-19T15:09:09;23.30;51.50
9083;DHT22;4577;48.704;9.000;2022-08-19T15:18:56;23.60;50.40
9083;DHT22;4577;48.704;9.000;2022-08-19T15:21:24;23.60;49.80
9083;DHT22;4577;48.704;9.000;2022-08-19T15:23:50;23.70;48.90
9083;DHT22;4577;48.704;9.000;2022-08-19T15:26:19;23.80;48.80
9083;DHT22;4577;48.704;9.000;2022-08-19T15:28:45;23.90;48.60
9083;DHT22;4577;48.704;9.000;2022-08-19T15:31:12;24.00;48.10
9083;DHT22;4577;48.704;9.000;2022-08-19T15:33:39;24.00;48.60
9083;DHT22;4577;48.704;9.000;2022-08-19T15:38:34;24.10;49.50
9083;DHT22;4577;48.704;9.000;2022-08-19T15:41:04;24.10;49.00
9083;DHT22;4577;48.704;9.000;2022-08-19T15:43:54;24.10;49.50
9083;DHT22;4577;48.704;9.000;2022-08-19T15:46:23;24.10;49.70
9083;DHT22;4577;48.704;9.000;2022-08-19T15:48:52;24.10;48.80
9083;DHT22;4577;48.704;9.000;2022-08-19T15:53:46;24.20;48.20
9083;DHT22;4577;48.704;9.000;2022-08-19T16:01:23;24.10;47.70
9083;DHT22;4577;48.704;9.000;2022-08-19T16:04:07;24.20;47.90
9083;DHT22;4577;48.704;9.000;2022-08-19T16:06:54;24.10;49.20
9083;DHT22;4577;48.704;9.000;2022-08-19T16:09:23;24.00;49.50
9083;DHT22;4577;48.704;9.000;2022-08-19T16:14:19;23.90;49.30
9083;DHT22;4577;48.704;9.000;2022-08-19T16:16:46;23.90;49.00
9083;DHT22;4577;48.704;9.000;2022-08-19T16:19:13;23.90;49.50
9083;DHT22;4577;48.704;9.000;2022-08-19T16:24:07;23.80;49.00
9083;DHT22;4577;48.704;9.000;2022-08-19T16:26:33;23.70;48.60
9083;DHT22;4577;48.704;9.000;2022-08-19T16:29:00;23.80;48.40
9083;DHT22;4577;48.704;9.000;2022-08-19T16:31:27;23.80;48.50
9083;DHT22;4577;48.704;9.000;2022-08-19T16:33:53;23.80;48.50
9083;DHT22;4577;48.704;9.000;2022-08-19T16:36:19;23.70;48.30
9083;DHT22;4577;48.704;9.000;2022-08-19T16:38:45;23.50;48.60
9083;DHT22;4577;48.704;9.000;2022-08-19T16:41:11;23.50;48.70
9083;DHT22;4577;48.704;9.000;2022-08-19T16:43:39;23.70;48.90
9083;DHT22;4577;48.704;9.000;2022-08-19T16:48:31;23.60;49.10
9083;DHT22;4577;48.704;9.000;2022-08-19T16:50:58;23.60;49.00
9083;DHT22;4577;48.704;9.000;2022-08-19T16:53:27;23.40;48.90
9083;DHT22;4577;48.704;9.000;2022-08-19T16:55:57;23.50;48.90
9083;DHT22;4577;48.704;9.000;2022-08-19T16:58:27;23.50;49.10
9083;DHT22;4577;48.704;9.000;2022-08-19T17:00:55;23.50;49.10
9083;DHT22;4577;48.704;9.000;2022-08-19T17:03:21;23.50;49.50
9083;DHT22;4577;48.704;9.000;2022-08-19T17:05:55;23.40;49.20
9083;DHT22;4577;48.704;9.000;2022-08-19T17:08:24;23.50;49.30
9083;DHT22;4577;48.704;9.000;2022-08-19T17:10:53;23.40;49.40
9083;DHT22;4577;48.704;9.000;2022-08-19T17:13:20;23.50;49.50
9083;DHT22;4577;48.704;9.000;2022-08-19T17:20:40;23.40;49.90
9083;DHT22;4577;48.704;9.000;2022-08-19T17:23:07;23.50;50.00
9083;DHT22;4577;48.704;9.000;2022-08-19T17:28:13;23.60;49.80
9083;DHT22;4577;48.704;9.000;2022-08-19T17:33:06;23.60;50.00
9083;DHT22;4577;48.704;9.000;2022-08-19T17:35:32;23.40;49.90
9083;DHT22;4577;48.704;9.000;2022-08-19T17:38:06;23.60;50.10
9083;DHT22;4577;48.704;9.000;2022-08-19T17:40:33;23.60;49.90
9083;DHT22;4577;48.704;9.000;2022-08-19T17:45:26;23.40;48.90
9083;DHT22;4577;48.704;9.000;2022-08-19T17:47:53;23.50;48.90
9083;DHT22;4577;48.704;9.000;2022-08-19T17:52:50;23.20;48.90
9083;DHT22;4577;48.704;9.000;2022-08-19T17:55:18;23.40;48.50
9083;DHT22;4577;48.704;9.000;2022-08-19T17:57:45;23.60;48.50
9083;DHT22;4577;48.704;9.000;2022-08-19T18:00:12;23.40;48.30
9083;DHT22;4577;48.704;9.000;2022-08-19T18:05:11;23.30;47.70
9083;DHT22;4577;48.704;9.000;2022-08-19T18:07:38;23.30;47.70
9083;DHT22;4577;48.704;9.000;2022-08-19T18:10:05;23.20;47.70
9083;DHT22;4577;48.704;9.000;2022-08-19T18:12:32;23.20;47.70
9083;DHT22;4577;48.704;9.000;2022-08-19T18:15:02;23.20;47.70
9083;DHT22;4577;48.704;9.000;2022-08-19T18:17:29;23.20;47.80
9083;DHT22;4577;48.704;9.000;2022-08-19T18:22:33;23.20;47.60
9083;DHT22;4577;48.704;9.000;2022-08-19T18:25:16;23.10;47.60
9083;DHT22;4577;48.704;9.000;2022-08-19T18:27:50;23.10;47.60
9083;DHT22;4577;48.704;9.000;2022-08-19T18:30:17;23.10;47.60
9083;DHT22;4577;48.704;9.000;2022-08-19T18:32:45;23.10;47.60
9083;DHT22;4577;48.704;9.000;2022-08-19T18:35:17;23.10;47.70
9083;DHT22;4577;48.704;9.000;2022-08-19T18:37:45;23.10;48.40
9083;DHT22;4577;48.704;9.000;2022-08-19T18:40:19;22.80;49.90
9083;DHT22;4577;48.704;9.000;2022-08-19T18:43:05;22.70;51.30
9083;DHT22;4577;48.704;9.000;2022-08-19T18:45:41;22.70;52.50
9083;DHT22;4577;48.704;9.000;2022-08-19T18:51:11;22.50;53.40
9083;DHT22;4577;48.704;9.000;2022-08-19T18:53:39;22.50;53.40
9083;DHT22;4577;48.704;9.000;2022-08-19T18:56:06;22.40;53.40
9083;DHT22;4577;48.704;9.000;2022-08-19T18:58:32;22.60;53.80
9083;DHT22;4577;48.704;9.000;2022-08-19T19:01:27;22.40;53.60
9083;DHT22;4577;48.704;9.000;2022-08-19T19:03:54;22.40;53.90
9083;DHT22;4577;48.704;9.000;2022-08-19T19:06:34;22.30;54.10
9083;DHT22;4577;48.704;9.000;2022-08-19T19:09:03;22.20;54.40
9083;DHT22;4577;48.704;9.000;2022-08-19T19:11:35;22.20;54.50
9083;DHT22;4577;48.704;9.000;2022-08-19T19:14:05;22.10;54.60
9083;DHT22;4577;48.704;9.000;2022-08-19T19:16:34;22.20;54.50
9083;DHT22;4577;48.704;9.000;2022-08-19T19:19:00;22.10;54.50
9083;DHT22;4577;48.704;9.000;2022-08-19T19:23:53;22.10;54.30
9083;DHT22;4577;48.704;9.000;2022-08-19T19:28:47;22.00;54.20
9083;DHT22;4577;48.704;9.000;2022-08-19T19:31:20;22.00;54.20
9083;DHT22;4577;48.704;9.000;2022-08-19T19:33:52;22.00;54.30
9083;DHT22;4577;48.704;9.000;2022-08-19T19:38:44;22.20;54.60
9083;DHT22;4577;48.704;9.000;2022-08-19T19:41:16;22.20;54.50
9083;DHT22;4577;48.704;9.000;2022-08-19T19:43:42;21.90;54.40
9083;DHT22;4577;48.704;9.000;2022-08-19T19:46:09;22.20;54.70
9083;DHT22;4577;48.704;9.000;2022-08-19T19:51:02;21.90;54.60
9083;DHT22;4577;48.704;9.000;2022-08-19T19:55:55;22.10;55.80
9083;DHT22;4577;48.704;9.000;2022-08-19T19:58:27;21.90;55.60
9083;DHT22;4577;48.704;9.000;2022-08-19T20:03:20;21.80;55.50
9083;DHT22;4577;48.704;9.000;2022-08-19T20:05:47;21.80;55.30
9083;DHT22;4577;48.704;9.000;2022-08-19T20:08:13;22.00;54.80
9083;DHT22;4577;48.704;9.000;2022-08-19T20:11:00;21.80;54.50
9083;DHT22;4577;48.704;9.000;2022-08-19T20:15:52;22.00;53.90
9083;DHT22;4577;48.704;9.000;2022-08-19T20:20:45;21.90;53.70
9083;DHT22;4577;48.704;9.000;2022-08-19T20:23:20;22.00;53.80
9083;DHT22;4577;48.704;9.000;2022-08-19T20:30:40;22.00;54.30
9083;DHT22;4577;48.704;9.000;2022-08-19T20:33:07;22.00;54.50
9083;DHT22;4577;48.704;9.000;2022-08-19T20:35:34;22.00;54.20
9083;DHT22;4577;48.704;9.000;2022-08-19T20:40:27;22.00;53.80
9083;DHT22;4577;48.704;9.000;2022-08-19T20:42:54;21.80;53.80
9083;DHT22;4577;48.704;9.000;2022-08-19T20:45:24;21.80;53.80
9083;DHT22;4577;48.704;9.000;2022-08-19T20:47:50;21.80;53.90
9083;DHT22;4577;48.704;9.000;2022-08-19T20:50:16;22.10;54.40
9083;DHT22;4577;48.704;9.000;2022-08-19T20:52:43;21.90;54.10
9083;DHT22;4577;48.704;9.000;2022-08-19T20:55:10;21.80;54.00
9083;DHT22;4577;48.704;9.000;2022-08-19T20:57:36;21.80;54.00
9083;DHT22;4577;48.704;9.000;2022-08-19T21:00:05;21.70;54.10
9083;DHT22;4577;48.704;9.000;2022-08-19T21:07:26;21.60;54.60
9083;DHT22;4577;48.704;9.000;2022-08-19T21:09:52;21.50;54.80
9083;DHT22;4577;48.704;9.000;2022-08-19T21:17:11;21.60;56.10
9083;DHT22;4577;48.704;9.000;2022-08-19T21:19:37;21.50;56.50
9083;DHT22;4577;48.704;9.000;2022-08-19T21:22:03;21.40;56.70
9083;DHT22;4577;48.704;9.000;2022-08-19T21:24:29;21.40;56.70
9083;DHT22;4577;48.704;9.000;2022-08-19T21:26:55;21.60;57.20
9083;DHT22;4577;48.704;9.000;2022-08-19T21:29:21;21.50;57.40
9083;DHT22;4577;48.704;9.000;2022-08-19T21:34:13;21.30;58.20
9083;DHT22;4577;48.704;9.000;2022-08-19T21:41:31;21.20;59.40
9083;DHT22;4577;48.704;9.000;2022-08-19T21:43:57;21.20;59.60
9083;DHT22;4577;48.704;9.000;2022-08-19T21:51:15;21.20;60.10
9083;DHT22;4577;48.704;9.000;2022-08-19T21:53:41;21.20;60.60
9083;DHT22;4577;48.704;9.000;2022-08-19T21:56:06;21.10;60.80
9083;DHT22;4577;48.704;9.000;2022-08-19T21:58:33;21.10;61.00
9083;DHT22;4577;48.704;9.000;2022-08-19T22:01:01;21.10;61.20
9083;DHT22;4577;48.704;9.000;2022-08-19T22:03:30;21.10;61.20
9083;DHT22;4577;48.704;9.000;2022-08-19T22:05:56;21.10;61.60
9083;DHT22;4577;48.704;9.000;2022-08-19T22:08:23;21.00;61.50
9083;DHT22;4577;48.704;9.000;2022-08-19T22:10:49;21.10;61.50
9083;DHT22;4577;48.704;9.000;2022-08-19T22:13:15;21.20;61.80
9083;DHT22;4577;48.704;9.000;2022-08-19T22:15:42;21.20;61.80
9083;DHT22;4577;48.704;9.000;2022-08-19T22:18:09;21.10;61.90
9083;DHT22;4577;48.704;9.000;2022-08-19T22:20:35;21.10;62.20
9083;DHT22;4577;48.704;9.000;2022-08-19T22:23:04;21.10;62.10
9083;DHT22;4577;48.704;9.000;2022-08-19T22:25:36;21.10;62.40
9083;DHT22;4577;48.704;9.000;2022-08-19T22:28:04;21.30;65.90
9083;DHT22;4577;48.704;9.000;2022-08-19T22:30:31;20.50;71.70
9083;DHT22;4577;48.704;9.000;2022-08-19T22:33:02;20.40;69.30
9083;DHT22;4577;48.704;9.000;2022-08-19T22:35:31;20.50;68.30
9083;DHT22;4577;48.704;9.000;2022-08-19T22:37:58;20.50;68.20
9083;DHT22;4577;48.704;9.000;2022-08-19T22:43:11;20.70;69.10
9083;DHT22;4577;48.704;9.000;2022-08-19T22:45:40;20.80;68.50
9083;DHT22;4577;48.704;9.000;2022-08-19T22:48:08;20.70;68.20
9083;DHT22;4577;48.704;9.000;2022-08-19T22:50:36;20.50;68.40
9083;DHT22;4577;48.704;9.000;2022-08-19T22:53:02;20.60;68.40
9083;DHT22;4577;48.704;9.000;2022-08-19T22:55:29;20.50;68.30
9083;DHT22;4577;48.704;9.000;2022-08-19T22:57:56;20.50;68.00
9083;DHT22;4577;48.704;9.000;2022-08-19T23:00:23;20.70;67.30
9083;DHT22;4577;48.704;9.000;2022-08-19T23:05:17;20.60;67.40
9083;DHT22;4577;48.704;9.000;2022-08-19T23:07:43;20.60;67.30
9083;DHT22;4577;48.704;9.000;2022-08-19T23:10:10;20.50;67.40
9083;DHT22;4577;48.704;9.000;2022-08-19T23:12:42;20.60;67.50
9083;DHT22;4577;48.704;9.000;2022-08-19T23:15:21;20.50;67.40
9083;DHT22;4577;48.704;9.000;2022-08-19T23:17:48;20.40;67.30
9083;DHT22;4577;48.704;9.000;2022-08-19T23:20:15;20.40;67.30
9083;DHT22;4577;48.704;9.000;2022-08-19T23:22:45;20.30;67.30
9083;DHT22;4577;48.704;9.000;2022-08-19T23:25:17;20.30;67.60
9083;DHT22;4577;48.704;9.000;2022-08-19T23:27:44;20.40;67.50
9083;DHT22;4577;48.704;9.000;2022-08-19T23:30:30;20.20;67.40
9083;DHT22;4577;48.704;9.000;2022-08-19T23:33:00;20.30;67.60
9083;DHT22;4577;48.704;9.000;2022-08-19T23:35:31;20.20;67.90
9083;DHT22;4577;48.704;9.000;2022-08-19T23:37:58;20.10;68.20
9083;DHT22;4577;48.704;9.000;2022-08-19T23:40:25;19.90;68.30
9083;DHT22;4577;48.704;9.000;2022-08-19T23:42:51;20.00;68.30
9083;DHT22;4577;48.704;9.000;2022-08-19T23:45:19;20.10;68.60
9083;DHT22;4577;48.704;9.000;2022-08-19T23:47:45;19.90;68.60
9083;DHT22;4577;48.704;9.000;2022-08-19T23:50:12;20.10;68.80
9083;DHT22;4577;48.704;9.000;2022-08-19T23:52:47;20.00;69.10
9083;DHT22;4577;48.704;9.000;2022-08-19T23:55:13;19.90;68.80
9083;DHT22;4577;48.704;9.000;2022-08-19T23:57:39;20.00;69.00
